ENBN/BNN METAR and TAF weather

Enter ICAO airport designator
Station Type Date Time Source
ENBN METAR 2019/04/21 21:50 UTC NOAA

ENBN 212150Z 07006KT 9999 FEW008 SCT013 BKN025 06/05 Q1017


Station Type Date Time Source
ENBN Decoded METAR 2019/04/21 21:50 UTC NOAA

Bronnoysund / Bronnoy, Norway (ENBN) 65-28N 012-13E 9M
Apr 21, 2019 - 05:50 PM EDT / 2019.04.21 2150 UTC
Wind: from the ENE (070 degrees) at 7 MPH (6 KT):0
Visibility: greater than 7 mile(s):0
Sky conditions: mostly cloudy
Temperature: 42 F (6 C)
Dew Point: 41 F (5 C)
Relative Humidity: 93%
Pressure (altimeter): 30.03 in. Hg (1017 hPa)
ob: ENBN 212150Z 07006KT 9999 FEW008 SCT013 BKN025 06/05 Q1017
cycle: 22

Station Type Date Time Source
ENBN TAF 2011/03/27 18:12 UTC NOAA

TAF TAF ENBN 261700Z 2618/2718 CNL

Example: see airport list